sensor_id;sensor_type;location;lat;lon;timestamp;pressure;altitude;pressure_sealevel;temperature;humidity
21395;BME280;10858;42.714;23.180;2023-05-12T00:00:09;94623.13;;;10.17;88.04
21395;BME280;10858;42.714;23.180;2023-05-12T00:02:35;94622.66;;;10.33;87.42
21395;BME280;10858;42.714;23.180;2023-05-12T00:05:02;94626.81;;;10.25;86.94
21395;BME280;10858;42.714;23.180;2023-05-12T00:07:29;94624.81;;;10.18;87.08
21395;BME280;10858;42.714;23.180;2023-05-12T00:09:55;94629.03;;;10.09;87.58
21395;BME280;10858;42.714;23.180;2023-05-12T00:12:21;94631.66;;;10.09;87.85
21395;BME280;10858;42.714;23.180;2023-05-12T00:14:47;94622.41;;;10.15;87.03
21395;BME280;10858;42.714;23.180;2023-05-12T00:17:13;94620.31;;;10.18;87.45
21395;BME280;10858;42.714;23.180;2023-05-12T00:19:40;94627.84;;;10.13;87.03
21395;BME280;10858;42.714;23.180;2023-05-12T00:22:09;94629.97;;;10.08;87.28
21395;BME280;10858;42.714;23.180;2023-05-12T00:24:36;94628.38;;;9.85;87.73
21395;BME280;10858;42.714;23.180;2023-05-12T00:27:03;94627.88;;;9.91;87.10
21395;BME280;10858;42.714;23.180;2023-05-12T00:29:29;94634.09;;;10.12;87.28
21395;BME280;10858;42.714;23.180;2023-05-12T00:31:55;94625.81;;;9.95;86.98
21395;BME280;10858;42.714;23.180;2023-05-12T00:34:21;94640.63;;;9.86;87.26
21395;BME280;10858;42.714;23.180;2023-05-12T00:36:48;94631.97;;;9.84;87.56
21395;BME280;10858;42.714;23.180;2023-05-12T00:39:14;94637.06;;;9.76;87.74
21395;BME280;10858;42.714;23.180;2023-05-12T00:41:40;94637.19;;;9.75;88.13
21395;BME280;10858;42.714;23.180;2023-05-12T00:44:06;94629.59;;;9.70;88.06
21395;BME280;10858;42.714;23.180;2023-05-12T00:46:33;94638.66;;;9.68;87.98
21395;BME280;10858;42.714;23.180;2023-05-12T00:48:59;94635.88;;;9.69;88.54
21395;BME280;10858;42.714;23.180;2023-05-12T00:51:26;94643.59;;;9.50;88.80
21395;BME280;10858;42.714;23.180;2023-05-12T00:53:52;94643.47;;;9.63;88.99
21395;BME280;10858;42.714;23.180;2023-05-12T00:56:19;94642.38;;;9.65;88.43
21395;BME280;10858;42.714;23.180;2023-05-12T00:58:47;94641.69;;;9.52;88.27
21395;BME280;10858;42.714;23.180;2023-05-12T01:01:13;94645.16;;;9.53;88.63
21395;BME280;10858;42.714;23.180;2023-05-12T01:03:39;94648.19;;;9.59;88.29
21395;BME280;10858;42.714;23.180;2023-05-12T01:06:13;94645.63;;;9.80;87.34
21395;BME280;10858;42.714;23.180;2023-05-12T01:08:42;94645.50;;;9.70;87.75
21395;BME280;10858;42.714;23.180;2023-05-12T01:11:08;94653.47;;;9.59;87.84
21395;BME280;10858;42.714;23.180;2023-05-12T01:13:35;94646.34;;;9.71;88.13
21395;BME280;10858;42.714;23.180;2023-05-12T01:16:02;94653.00;;;9.65;87.34
21395;BME280;10858;42.714;23.180;2023-05-12T01:18:30;94645.97;;;9.75;88.09
21395;BME280;10858;42.714;23.180;2023-05-12T01:20:59;94654.78;;;9.65;87.96
21395;BME280;10858;42.714;23.180;2023-05-12T01:23:35;94659.38;;;9.63;88.32
21395;BME280;10858;42.714;23.180;2023-05-12T01:26:12;94658.41;;;9.53;88.83
21395;BME280;10858;42.714;23.180;2023-05-12T01:28:38;94660.22;;;9.63;88.76
21395;BME280;10858;42.714;23.180;2023-05-12T01:31:06;94659.66;;;9.37;89.49
21395;BME280;10858;42.714;23.180;2023-05-12T01:33:34;94662.84;;;9.52;89.60
21395;BME280;10858;42.714;23.180;2023-05-12T01:36:01;94653.09;;;9.75;89.16
21395;BME280;10858;42.714;23.180;2023-05-12T01:38:28;94656.09;;;9.70;88.32
21395;BME280;10858;42.714;23.180;2023-05-12T01:40:54;94654.16;;;9.83;88.58
21395;BME280;10858;42.714;23.180;2023-05-12T01:43:21;94651.13;;;9.88;87.13
21395;BME280;10858;42.714;23.180;2023-05-12T01:45:47;94653.94;;;9.75;88.31
21395;BME280;10858;42.714;23.180;2023-05-12T01:48:13;94661.88;;;9.64;88.56
21395;BME280;10858;42.714;23.180;2023-05-12T01:50:40;94660.13;;;9.54;89.45
21395;BME280;10858;42.714;23.180;2023-05-12T01:53:07;94652.16;;;9.54;88.95
21395;BME280;10858;42.714;23.180;2023-05-12T01:55:35;94655.16;;;9.60;89.14
21395;BME280;10858;42.714;23.180;2023-05-12T01:58:02;94654.16;;;9.72;88.85
21395;BME280;10858;42.714;23.180;2023-05-12T02:00:28;94659.72;;;9.69;88.61
21395;BME280;10858;42.714;23.180;2023-05-12T02:02:54;94654.44;;;9.69;88.85
21395;BME280;10858;42.714;23.180;2023-05-12T02:05:21;94652.41;;;9.62;88.95
21395;BME280;10858;42.714;23.180;2023-05-12T02:07:47;94645.53;;;9.59;88.91
21395;BME280;10858;42.714;23.180;2023-05-12T02:10:13;94648.19;;;9.59;88.42
21395;BME280;10858;42.714;23.180;2023-05-12T02:12:40;94647.63;;;9.33;89.61
21395;BME280;10858;42.714;23.180;2023-05-12T02:15:06;94648.44;;;9.34;89.57
21395;BME280;10858;42.714;23.180;2023-05-12T02:17:33;94649.50;;;9.42;89.58
21395;BME280;10858;42.714;23.180;2023-05-12T02:19:59;94645.78;;;9.45;89.44
21395;BME280;10858;42.714;23.180;2023-05-12T02:22:25;94647.22;;;9.38;89.38
21395;BME280;10858;42.714;23.180;2023-05-12T02:24:52;94644.59;;;9.38;89.42
21395;BME280;10858;42.714;23.180;2023-05-12T02:27:18;94646.50;;;9.36;89.29
21395;BME280;10858;42.714;23.180;2023-05-12T02:29:44;94649.53;;;9.54;89.41
21395;BME280;10858;42.714;23.180;2023-05-12T02:32:10;94651.53;;;9.50;88.61
21395;BME280;10858;42.714;23.180;2023-05-12T02:34:37;94654.69;;;9.55;88.87
21395;BME280;10858;42.714;23.180;2023-05-12T02:37:03;94641.44;;;9.55;88.84
21395;BME280;10858;42.714;23.180;2023-05-12T02:39:29;94652.28;;;9.52;88.87
21395;BME280;10858;42.714;23.180;2023-05-12T02:41:55;94651.09;;;9.45;88.35
21395;BME280;10858;42.714;23.180;2023-05-12T02:44:22;94656.38;;;9.45;89.31
21395;BME280;10858;42.714;23.180;2023-05-12T02:46:48;94660.66;;;9.68;88.79
21395;BME280;10858;42.714;23.180;2023-05-12T02:49:14;94650.59;;;9.51;88.80
21395;BME280;10858;42.714;23.180;2023-05-12T02:51:41;94657.94;;;9.59;88.56
21395;BME280;10858;42.714;23.180;2023-05-12T02:54:07;94654.44;;;9.58;88.54
21395;BME280;10858;42.714;23.180;2023-05-12T02:56:33;94663.13;;;9.49;88.05
21395;BME280;10858;42.714;23.180;2023-05-12T02:58:59;94661.31;;;9.38;87.96
21395;BME280;10858;42.714;23.180;2023-05-12T03:01:26;94658.44;;;9.30;88.95
21395;BME280;10858;42.714;23.180;2023-05-12T03:03:52;94660.69;;;9.46;88.62
21395;BME280;10858;42.714;23.180;2023-05-12T03:06:18;94659.75;;;9.47;88.47
21395;BME280;10858;42.714;23.180;2023-05-12T03:08:45;94659.53;;;9.39;88.64
21395;BME280;10858;42.714;23.180;2023-05-12T03:11:11;94665.06;;;9.25;88.56
21395;BME280;10858;42.714;23.180;2023-05-12T03:13:37;94664.81;;;9.17;89.03
21395;BME280;10858;42.714;23.180;2023-05-12T03:16:04;94662.66;;;9.33;89.14
21395;BME280;10858;42.714;23.180;2023-05-12T03:18:30;94671.31;;;9.35;88.79
21395;BME280;10858;42.714;23.180;2023-05-12T03:20:57;94666.50;;;9.07;89.21
21395;BME280;10858;42.714;23.180;2023-05-12T03:23:23;94673.72;;;8.94;89.56
21395;BME280;10858;42.714;23.180;2023-05-12T03:25:49;94670.06;;;8.73;90.01
21395;BME280;10858;42.714;23.180;2023-05-12T03:28:15;94678.28;;;8.92;89.40
21395;BME280;10858;42.714;23.180;2023-05-12T03:30:41;94674.66;;;8.93;89.15
21395;BME280;10858;42.714;23.180;2023-05-12T03:33:08;94678.53;;;9.11;89.18
21395;BME280;10858;42.714;23.180;2023-05-12T03:35:34;94687.91;;;9.15;88.69
21395;BME280;10858;42.714;23.180;2023-05-12T03:38:00;94683.22;;;9.18;88.52
21395;BME280;10858;42.714;23.180;2023-05-12T03:40:26;94684.28;;;9.16;88.44
21395;BME280;10858;42.714;23.180;2023-05-12T03:42:53;94691.25;;;9.06;88.58
21395;BME280;10858;42.714;23.180;2023-05-12T03:45:19;94689.81;;;9.02;89.28
21395;BME280;10858;42.714;23.180;2023-05-12T03:47:46;94689.97;;;9.11;89.37
21395;BME280;10858;42.714;23.180;2023-05-12T03:50:12;94687.66;;;9.07;88.87
21395;BME280;10858;42.714;23.180;2023-05-12T03:52:38;94694.88;;;9.05;89.62
21395;BME280;10858;42.714;23.180;2023-05-12T03:55:06;94689.34;;;9.08;89.65
21395;BME280;10858;42.714;23.180;2023-05-12T03:57:33;94688.13;;;9.12;88.88
21395;BME280;10858;42.714;23.180;2023-05-12T04:00:02;94691.75;;;9.22;89.52
21395;BME280;10858;42.714;23.180;2023-05-12T04:02:29;94698.97;;;9.20;88.77
21395;BME280;10858;42.714;23.180;2023-05-12T04:04:55;94682.38;;;9.07;90.05
21395;BME280;10858;42.714;23.180;2023-05-12T04:07:22;94684.31;;;9.27;89.67
21395;BME280;10858;42.714;23.180;2023-05-12T04:09:48;94685.75;;;9.31;89.34
21395;BME280;10858;42.714;23.180;2023-05-12T04:12:14;94693.44;;;9.01;90.48
21395;BME280;10858;42.714;23.180;2023-05-12T04:14:41;94693.78;;;8.96;90.85
21395;BME280;10858;42.714;23.180;2023-05-12T04:17:07;94688.13;;;9.01;91.56
21395;BME280;10858;42.714;23.180;2023-05-12T04:19:33;94692.13;;;9.17;90.25
21395;BME280;10858;42.714;23.180;2023-05-12T04:21:59;94696.09;;;9.34;90.43
21395;BME280;10858;42.714;23.180;2023-05-12T04:24:26;94700.66;;;9.32;89.76
21395;BME280;10858;42.714;23.180;2023-05-12T04:26:52;94700.19;;;9.27;90.69
21395;BME280;10858;42.714;23.180;2023-05-12T04:29:18;94698.50;;;9.48;89.76
21395;BME280;10858;42.714;23.180;2023-05-12T04:31:44;94707.16;;;9.50;89.26
21395;BME280;10858;42.714;23.180;2023-05-12T04:34:11;94711.00;;;9.46;89.15
21395;BME280;10858;42.714;23.180;2023-05-12T04:36:37;94712.94;;;9.55;88.95
21395;BME280;10858;42.714;23.180;2023-05-12T04:39:03;94717.41;;;9.43;88.72
21395;BME280;10858;42.714;23.180;2023-05-12T04:41:30;94711.63;;;9.38;89.48
21395;BME280;10858;42.714;23.180;2023-05-12T04:43:56;94706.22;;;9.29;89.80
21395;BME280;10858;42.714;23.180;2023-05-12T04:46:22;94711.00;;;9.46;90.11
21395;BME280;10858;42.714;23.180;2023-05-12T04:48:48;94709.34;;;9.45;88.86
21395;BME280;10858;42.714;23.180;2023-05-12T04:51:15;94708.38;;;9.57;89.20
21395;BME280;10858;42.714;23.180;2023-05-12T04:53:41;94702.06;;;9.80;88.46
21395;BME280;10858;42.714;23.180;2023-05-12T04:56:07;94704.84;;;9.90;87.64
21395;BME280;10858;42.714;23.180;2023-05-12T04:58:33;94704.75;;;9.69;88.70
21395;BME280;10858;42.714;23.180;2023-05-12T05:00:59;94704.63;;;9.49;89.28
21395;BME280;10858;42.714;23.180;2023-05-12T05:03:26;94704.28;;;9.42;89.27
21395;BME280;10858;42.714;23.180;2023-05-12T05:05:52;94707.78;;;9.54;89.86
21395;BME280;10858;42.714;23.180;2023-05-12T05:08:18;94705.84;;;9.56;90.30
21395;BME280;10858;42.714;23.180;2023-05-12T05:10:45;94704.72;;;9.80;89.94
21395;BME280;10858;42.714;23.180;2023-05-12T05:13:11;94698.69;;;10.11;88.88
21395;BME280;10858;42.714;23.180;2023-05-12T05:15:37;94703.72;;;10.14;87.49
21395;BME280;10858;42.714;23.180;2023-05-12T05:18:03;94710.91;;;9.70;88.02
21395;BME280;10858;42.714;23.180;2023-05-12T05:20:30;94717.28;;;9.67;89.16
21395;BME280;10858;42.714;23.180;2023-05-12T05:22:59;94705.13;;;9.42;89.52
21395;BME280;10858;42.714;23.180;2023-05-12T05:25:25;94715.84;;;9.41;89.95
21395;BME280;10858;42.714;23.180;2023-05-12T05:27:52;94714.28;;;9.27;90.52
21395;BME280;10858;42.714;23.180;2023-05-12T05:30:20;94710.31;;;9.33;90.78
21395;BME280;10858;42.714;23.180;2023-05-12T05:32:46;94717.50;;;9.42;90.44
21395;BME280;10858;42.714;23.180;2023-05-12T05:35:13;94714.63;;;9.45;90.69
21395;BME280;10858;42.714;23.180;2023-05-12T05:37:39;94717.03;;;9.59;90.43
21395;BME280;10858;42.714;23.180;2023-05-12T05:40:06;94721.34;;;9.60;89.61
21395;BME280;10858;42.714;23.180;2023-05-12T05:42:32;94721.34;;;9.82;89.37
21395;BME280;10858;42.714;23.180;2023-05-12T05:44:58;94717.50;;;9.64;90.06
21395;BME280;10858;42.714;23.180;2023-05-12T05:47:24;94724.97;;;9.59;90.30
21395;BME280;10858;42.714;23.180;2023-05-12T05:49:53;94717.63;;;9.63;90.00
21395;BME280;10858;42.714;23.180;2023-05-12T05:52:20;94727.16;;;9.65;90.44
21395;BME280;10858;42.714;23.180;2023-05-12T05:54:46;94724.75;;;9.51;90.39
21395;BME280;10858;42.714;23.180;2023-05-12T05:57:12;94722.81;;;9.31;90.76
21395;BME280;10858;42.714;23.180;2023-05-12T05:59:38;94721.03;;;9.54;91.42
21395;BME280;10858;42.714;23.180;2023-05-12T06:02:05;94731.47;;;9.66;90.65
21395;BME280;10858;42.714;23.180;2023-05-12T06:04:31;94734.25;;;9.54;89.93
21395;BME280;10858;42.714;23.180;2023-05-12T06:06:57;94733.41;;;9.75;90.78
21395;BME280;10858;42.714;23.180;2023-05-12T06:09:23;94738.44;;;10.11;89.84
21395;BME280;10858;42.714;23.180;2023-05-12T06:11:50;94732.88;;;10.03;88.87
21395;BME280;10858;42.714;23.180;2023-05-12T06:14:16;94738.69;;;9.97;88.61
